Time;durP1;ratioP1;P1;durP2;ratioP2;P2;SDS_P1;SDS_P2;PMS_P1;PMS_P2;Temp;Humidity;BMP_temperature;BMP_pressure;BME280_temperature;BME280_humidity;BME280_pressure;Samples;Min_cycle;Max_cycle;Signal;HPM_P1;HPM_P2
2022/03/31 00:00:14;;;;;;;7.80;1.30;;;5.20;99.90;;;;;;5031255;28;20703;-61
2022/03/31 00:02:40;;;;;;;4.00;0.87;;;5.20;99.90;;;;;;5029812;28;20174;-61
2022/03/31 00:05:06;;;;;;;4.30;0.90;;;5.10;99.90;;;;;;5029190;28;20272;-61
2022/03/31 00:07:31;;;;;;;4.20;0.93;;;5.10;99.90;;;;;;5030385;28;20201;-60
2022/03/31 00:09:57;;;;;;;5.67;1.13;;;5.00;99.90;;;;;;5028654;28;20584;-61
2022/03/31 00:12:23;;;;;;;2.27;1.23;;;5.00;99.90;;;;;;5030673;28;20169;-60
2022/03/31 00:14:48;;;;;;;4.00;1.10;;;5.10;99.90;;;;;;5030627;28;20181;-60
2022/03/31 00:17:14;;;;;;;3.87;1.30;;;5.10;99.90;;;;;;5030126;28;20215;-61
2022/03/31 00:19:40;;;;;;;5.13;0.90;;;5.20;99.90;;;;;;5030365;28;20656;-61
2022/03/31 00:22:06;;;;;;;5.07;1.23;;;5.10;99.90;;;;;;5029840;28;20181;-60
2022/03/31 00:24:32;;;;;;;2.70;1.10;;;5.00;99.90;;;;;;5029849;28;20232;-60
2022/03/31 00:26:58;;;;;;;2.03;1.40;;;5.10;99.90;;;;;;5030347;28;20201;-60
2022/03/31 00:29:23;;;;;;;1.93;1.00;;;5.10;99.90;;;;;;5030456;28;20203;-59
2022/03/31 00:31:49;;;;;;;7.33;0.97;;;5.10;99.90;;;;;;5029998;28;20174;-60
2022/03/31 00:34:15;;;;;;;3.13;1.30;;;5.00;99.90;;;;;;5029930;28;20264;-61
2022/03/31 00:36:41;;;;;;;6.07;1.30;;;4.90;99.90;;;;;;5029955;28;20188;-61
2022/03/31 00:41:52;;;;;;;4.30;1.43;;;5.00;99.90;;;;;;5030068;28;20663;-61
2022/03/31 00:44:18;;;;;;;3.30;1.20;;;4.80;99.90;;;;;;5029893;28;20269;-60
2022/03/31 00:46:54;;;;;;;5.20;1.57;;;4.70;99.90;;;;;;5029984;28;20288;-60
2022/03/31 00:49:21;;;;;;;5.13;1.60;;;4.70;99.90;;;;;;5010404;28;20663;-60
2022/03/31 00:51:52;;;;;;;5.33;1.93;;;4.80;99.90;;;;;;5023346;28;20178;-62
2022/03/31 00:54:25;;;;;;;3.93;1.70;;;4.80;99.90;;;;;;5029765;28;20231;-60
2022/03/31 00:56:51;;;;;;;7.17;1.83;;;4.70;99.90;;;;;;5029324;28;20173;-60
2022/03/31 00:59:18;;;;;;;2.53;1.80;;;4.70;99.90;;;;;;5029994;28;20178;-62
2022/03/31 01:01:45;;;;;;;7.37;2.40;;;4.70;99.90;;;;;;5029708;28;20659;-60
2022/03/31 01:04:11;;;;;;;7.13;1.87;;;4.60;99.90;;;;;;5029651;28;20216;-60
2022/03/31 01:06:37;;;;;;;10.53;1.70;;;4.60;99.90;;;;;;5029825;28;20581;-60
2022/03/31 01:09:04;;;;;;;6.43;2.20;;;4.70;99.90;;;;;;5028238;28;20178;-60
2022/03/31 01:11:31;;;;;;;7.10;2.50;;;4.70;99.90;;;;;;5029506;28;20632;-60
2022/03/31 01:13:58;;;;;;;5.10;2.20;;;4.60;99.90;;;;;;5029715;28;20214;-61
2022/03/31 01:16:24;;;;;;;6.40;2.83;;;4.60;99.90;;;;;;5030024;28;20181;-60
2022/03/31 01:18:51;;;;;;;4.80;3.50;;;4.70;99.90;;;;;;5029426;28;20204;-61
2022/03/31 01:21:17;;;;;;;10.40;6.47;;;4.60;99.90;;;;;;5029706;28;20178;-61
2022/03/31 01:23:46;;;;;;;10.57;6.70;;;4.60;99.90;;;;;;5029353;28;20217;-61
2022/03/31 01:26:13;;;;;;;16.07;7.67;;;4.60;99.90;;;;;;5029435;28;20193;-61
2022/03/31 01:28:42;;;;;;;14.43;7.63;;;4.60;99.90;;;;;;5029324;28;20199;-60
2022/03/31 01:31:09;;;;;;;13.87;9.10;;;4.70;99.90;;;;;;5029523;28;20185;-59
2022/03/31 01:33:34;;;;;;;14.73;9.90;;;4.80;99.90;;;;;;5029408;28;20637;-62
2022/03/31 01:36:04;;;;;;;14.40;8.93;;;4.70;99.90;;;;;;5029672;28;20203;-62
2022/03/31 01:38:30;;;;;;;13.10;9.27;;;4.60;99.90;;;;;;5029466;28;20181;-62
2022/03/31 01:40:57;;;;;;;13.33;8.33;;;4.60;99.90;;;;;;5029622;28;20174;-63
2022/03/31 01:43:23;;;;;;;14.87;8.43;;;4.50;99.90;;;;;;5028953;28;20240;-63
2022/03/31 01:45:49;;;;;;;12.93;8.73;;;4.50;99.90;;;;;;5029156;28;20539;-62
2022/03/31 01:48:16;;;;;;;14.40;8.43;;;4.50;99.90;;;;;;5032285;28;20193;-62
2022/03/31 01:50:42;;;;;;;12.00;7.67;;;4.60;99.90;;;;;;5033309;28;20676;-63
2022/03/31 01:53:09;;;;;;;13.10;7.87;;;4.40;99.90;;;;;;5032924;28;20209;-63
2022/03/31 01:55:36;;;;;;;10.90;7.17;;;4.40;99.90;;;;;;5032738;28;20182;-62
2022/03/31 01:58:02;;;;;;;10.87;7.40;;;4.30;99.90;;;;;;5032304;28;20181;-62
2022/03/31 02:00:28;;;;;;;12.97;7.73;;;4.40;99.90;;;;;;5032680;28;20240;-62
2022/03/31 02:02:54;;;;;;;10.20;6.97;;;4.40;99.90;;;;;;5032505;28;20654;-60
2022/03/31 02:05:20;;;;;;;12.57;6.50;;;4.20;99.90;;;;;;5032674;28;20251;-61
2022/03/31 02:07:46;;;;;;;11.80;6.83;;;4.30;99.90;;;;;;5032333;28;20170;-62
2022/03/31 02:10:13;;;;;;;9.30;6.20;;;4.20;99.90;;;;;;5032767;28;20559;-63
2022/03/31 02:12:40;;;;;;;10.67;6.83;;;4.30;99.90;;;;;;5032368;28;20292;-61
2022/03/31 02:15:07;;;;;;;13.13;6.70;;;4.40;99.90;;;;;;5032877;28;20186;-63
2022/03/31 02:17:33;;;;;;;9.30;6.10;;;4.40;99.90;;;;;;5032514;28;20197;-64
2022/03/31 02:19:59;;;;;;;14.20;5.33;;;4.50;99.90;;;;;;5032397;28;20644;-60
2022/03/31 02:22:24;;;;;;;11.33;5.50;;;4.40;99.90;;;;;;5032384;28;20174;-60
2022/03/31 02:24:50;;;;;;;11.50;5.23;;;4.40;99.90;;;;;;5032377;28;20246;-60
2022/03/31 02:27:16;;;;;;;7.00;4.77;;;4.40;99.90;;;;;;5032075;28;20180;-60
2022/03/31 02:29:42;;;;;;;10.43;5.27;;;4.30;99.90;;;;;;5031916;28;20186;-60
2022/03/31 02:32:08;;;;;;;8.40;4.60;;;4.30;99.90;;;;;;5031747;28;20788;-60
2022/03/31 02:34:35;;;;;;;9.27;5.50;;;4.20;99.90;;;;;;5031754;28;20174;-62
2022/03/31 02:37:01;;;;;;;10.47;5.27;;;4.30;99.90;;;;;;5023845;28;20621;-60
2022/03/31 02:39:30;;;;;;;8.83;5.10;;;4.30;99.90;;;;;;5032046;28;20320;-61
2022/03/31 02:41:57;;;;;;;9.13;4.70;;;4.30;99.90;;;;;;5032316;28;20264;-61
2022/03/31 02:44:24;;;;;;;7.90;4.40;;;4.30;99.90;;;;;;5031440;28;20229;-61
2022/03/31 02:46:51;;;;;;;8.97;4.40;;;4.30;99.90;;;;;;5032090;28;20173;-61
2022/03/31 02:49:17;;;;;;;11.23;4.77;;;4.30;99.90;;;;;;5031777;28;20190;-61
2022/03/31 02:51:43;;;;;;;9.37;3.80;;;4.30;99.90;;;;;;5031872;28;20174;-62
2022/03/31 02:56:54;;;;;;;15.40;4.00;;;4.30;99.90;;;;;;5031995;28;20223;-61
2022/03/31 02:59:20;;;;;;;6.90;3.40;;;4.10;99.90;;;;;;5031508;28;20257;-61
2022/03/31 03:01:46;;;;;;;6.80;4.00;;;4.10;99.90;;;;;;5031558;28;20754;-61
2022/03/31 03:04:12;;;;;;;8.60;3.80;;;4.20;99.90;;;;;;5029749;28;20217;-61
2022/03/31 03:06:38;;;;;;;8.53;4.27;;;4.10;99.90;;;;;;5031375;28;20226;-61
2022/03/31 03:09:05;;;;;;;11.60;3.67;;;4.10;99.90;;;;;;5031610;28;20182;-61
2022/03/31 03:11:31;;;;;;;7.50;3.37;;;4.10;99.90;;;;;;5031740;28;20178;-61
2022/03/31 03:13:57;;;;;;;9.00;3.77;;;4.10;99.90;;;;;;5031222;28;20182;-61
2022/03/31 03:16:25;;;;;;;7.30;3.30;;;4.10;99.90;;;;;;5031073;28;20186;-60
2022/03/31 03:18:52;;;;;;;6.23;3.33;;;4.10;99.90;;;;;;5031198;28;20182;-60
2022/03/31 03:21:19;;;;;;;10.20;3.40;;;4.10;99.90;;;;;;5031526;28;20170;-61
2022/03/31 03:23:45;;;;;;;7.63;3.60;;;4.10;99.90;;;;;;5031175;28;20182;-60
2022/03/31 03:26:11;;;;;;;6.67;3.27;;;4.20;99.90;;;;;;5031287;28;20185;-60
2022/03/31 03:28:37;;;;;;;5.23;2.97;;;4.30;99.90;;;;;;5018488;28;20178;-61
2022/03/31 03:31:06;;;;;;;7.67;3.03;;;4.30;99.90;;;;;;5011633;28;20646;-61
2022/03/31 03:33:32;;;;;;;5.77;2.87;;;4.40;99.90;;;;;;5021308;28;20182;-60
2022/03/31 03:35:59;;;;;;;7.13;3.10;;;4.40;99.90;;;;;;5030688;28;20256;-60
2022/03/31 03:38:26;;;;;;;7.20;3.23;;;4.40;99.90;;;;;;5031129;28;20293;-60
2022/03/31 03:40:52;;;;;;;7.27;3.13;;;4.40;99.90;;;;;;5030398;28;20170;-60
2022/03/31 03:43:18;;;;;;;5.13;2.83;;;4.30;99.90;;;;;;5030606;28;20186;-60
2022/03/31 03:45:44;;;;;;;6.47;3.27;;;4.20;99.90;;;;;;5029274;28;20581;-60
2022/03/31 03:48:12;;;;;;;7.23;3.10;;;4.20;99.90;;;;;;5030761;28;20181;-61
2022/03/31 03:50:39;;;;;;;7.83;3.33;;;4.20;99.90;;;;;;5030464;28;20190;-60
2022/03/31 03:53:08;;;;;;;8.13;3.37;;;4.10;99.90;;;;;;5030641;28;20174;-60
2022/03/31 03:55:35;;;;;;;9.07;3.50;;;4.10;99.90;;;;;;5030613;28;20170;-60
2022/03/31 03:58:01;;;;;;;8.73;3.20;;;4.00;99.90;;;;;;5030372;28;20178;-60
2022/03/31 04:00:30;;;;;;;5.53;3.10;;;3.90;99.90;;;;;;5030701;28;20182;-60
2022/03/31 04:02:57;;;;;;;5.93;3.00;;;4.10;99.90;;;;;;5030004;28;20166;-60
2022/03/31 04:05:23;;;;;;;7.77;3.50;;;3.90;99.90;;;;;;5030304;28;20212;-61
2022/03/31 04:07:49;;;;;;;7.10;2.90;;;3.90;99.90;;;;;;5030103;28;20174;-61
2022/03/31 04:10:15;;;;;;;9.43;3.20;;;3.80;99.90;;;;;;5029625;28;20626;-60
2022/03/31 04:12:41;;;;;;;9.13;3.23;;;3.80;99.90;;;;;;5030128;28;20174;-60
2022/03/31 04:15:08;;;;;;;6.17;2.93;;;3.80;99.90;;;;;;5029066;28;20212;-60
2022/03/31 04:17:34;;;;;;;4.17;2.50;;;3.80;99.90;;;;;;5034434;28;20715;-60
2022/03/31 04:20:00;;;;;;;9.23;3.03;;;3.70;99.90;;;;;;5032372;28;20285;-60
2022/03/31 04:22:27;;;;;;;9.50;3.10;;;3.70;99.90;;;;;;5029825;28;20228;-61
2022/03/31 04:24:53;;;;;;;7.03;3.10;;;3.70;99.90;;;;;;5030006;28;20222;-60
2022/03/31 04:27:19;;;;;;;7.47;3.03;;;3.70;99.90;;;;;;5031104;28;20265;-59
2022/03/31 04:29:45;;;;;;;6.70;3.00;;;3.60;99.90;;;;;;5030033;28;20276;-61
2022/03/31 04:32:12;;;;;;;6.47;3.17;;;3.60;99.90;;;;;;5029332;28;20212;-60
2022/03/31 04:34:38;;;;;;;9.13;3.13;;;3.50;99.90;;;;;;5028550;28;20578;-59
2022/03/31 04:37:06;;;;;;;4.83;2.93;;;3.60;99.90;;;;;;5029600;28;20200;-60
2022/03/31 04:39:32;;;;;;;5.60;3.17;;;3.50;99.90;;;;;;5029803;28;20185;-60
2022/03/31 04:41:58;;;;;;;7.67;3.13;;;3.30;99.90;;;;;;5030000;28;20182;-59
2022/03/31 04:44:23;;;;;;;7.00;3.30;;;3.30;99.90;;;;;;5029487;28;20225;-60
2022/03/31 04:46:49;;;;;;;8.03;3.43;;;3.30;99.90;;;;;;5030007;28;20641;-60
2022/03/31 04:49:15;;;;;;;12.73;4.03;;;3.30;99.90;;;;;;5029887;28;20373;-60
2022/03/31 04:51:41;;;;;;;6.40;3.20;;;3.30;99.90;;;;;;5029945;28;20178;-60
2022/03/31 04:54:07;;;;;;;9.20;3.00;;;3.30;99.90;;;;;;5029881;28;20186;-60
2022/03/31 04:56:33;;;;;;;7.00;2.97;;;3.20;99.90;;;;;;5027639;28;20186;-60
2022/03/31 04:58:59;;;;;;;9.23;3.40;;;3.10;99.90;;;;;;5029487;28;20186;-60
2022/03/31 05:01:25;;;;;;;9.20;3.47;;;3.10;99.90;;;;;;5030109;28;20541;-58
2022/03/31 05:03:54;;;;;;;10.20;4.00;;;3.00;99.90;;;;;;5028608;28;20169;-58
2022/03/31 05:06:20;;;;;;;12.07;3.77;;;3.00;99.90;;;;;;5029484;28;20203;-59
2022/03/31 05:08:46;;;;;;;7.93;3.73;;;3.00;99.90;;;;;;5029628;28;20185;-59
2022/03/31 05:11:12;;;;;;;5.33;3.50;;;3.00;99.90;;;;;;5029977;28;20224;-59
2022/03/31 05:13:38;;;;;;;8.53;3.53;;;2.90;99.90;;;;;;5029364;28;20177;-59
2022/03/31 05:16:05;;;;;;;6.50;3.87;;;2.90;99.90;;;;;;5029496;28;20291;-59
2022/03/31 05:18:31;;;;;;;7.43;3.73;;;2.90;99.90;;;;;;5029490;28;20232;-58
2022/03/31 05:20:57;;;;;;;6.23;3.50;;;2.70;99.90;;;;;;5030354;28;20645;-60
2022/03/31 05:23:23;;;;;;;8.83;3.70;;;2.70;99.90;;;;;;5033687;28;20185;-59
2022/03/31 05:25:49;;;;;;;8.27;3.63;;;2.70;99.90;;;;;;5033302;28;20537;-59
2022/03/31 05:28:16;;;;;;;8.47;3.80;;;2.70;99.90;;;;;;5032911;28;20170;-59
2022/03/31 05:30:43;;;;;;;8.30;3.50;;;2.60;99.90;;;;;;5033385;28;20641;-58
2022/03/31 05:33:10;;;;;;;6.90;3.60;;;2.60;99.90;;;;;;5033161;28;20170;-58
2022/03/31 05:35:36;;;;;;;8.23;3.77;;;2.60;99.90;;;;;;5033285;28;20203;-59
2022/03/31 05:38:03;;;;;;;12.90;3.90;;;2.60;99.90;;;;;;5032966;28;20186;-60
2022/03/31 05:40:29;;;;;;;12.83;3.97;;;2.70;99.90;;;;;;5033315;28;20170;-61
2022/03/31 05:42:55;;;;;;;4.87;3.17;;;2.80;99.90;;;;;;5033107;28;20190;-60
2022/03/31 05:45:21;;;;;;;7.77;3.77;;;2.90;99.90;;;;;;5032828;28;20236;-60
2022/03/31 05:47:47;;;;;;;12.13;3.63;;;2.80;99.90;;;;;;5031507;28;20181;-60
2022/03/31 05:50:14;;;;;;;10.10;3.80;;;2.80;99.90;;;;;;5033114;28;20182;-60
2022/03/31 05:52:42;;;;;;;7.30;3.53;;;2.70;99.90;;;;;;5033093;28;20189;-60
2022/03/31 05:55:27;;;;;;;6.63;3.33;;;2.70;99.90;;;;;;5033086;28;20178;-60
2022/03/31 05:57:53;;;;;;;9.80;3.57;;;2.70;99.90;;;;;;5032641;28;20173;-59
2022/03/31 06:00:20;;;;;;;8.40;4.00;;;2.70;99.90;;;;;;5032751;28;20528;-60
2022/03/31 06:02:47;;;;;;;7.60;3.57;;;2.70;99.90;;;;;;5031403;28;20178;-59
2022/03/31 06:05:14;;;;;;;3.77;2.90;;;2.70;99.90;;;;;;5032966;28;20205;-60
2022/03/31 06:07:39;;;;;;;6.70;2.63;;;2.60;99.90;;;;;;5032535;28;20165;-60
2022/03/31 06:10:07;;;;;;;9.47;3.23;;;2.60;99.90;;;;;;5032714;28;20223;-60
2022/03/31 06:12:34;;;;;;;6.33;2.97;;;2.70;99.90;;;;;;5032540;28;20706;-59
2022/03/31 06:15:00;;;;;;;5.70;3.00;;;2.60;99.90;;;;;;5012933;28;20206;-58
2022/03/31 06:17:26;;;;;;;6.00;2.70;;;2.70;99.90;;;;;;5030691;28;20246;-62
2022/03/31 06:19:52;;;;;;;6.07;2.87;;;2.70;99.90;;;;;;5032547;28;20193;-61
2022/03/31 06:22:18;;;;;;;4.63;2.77;;;2.70;99.90;;;;;;5032435;28;20166;-61
2022/03/31 06:24:44;;;;;;;8.27;3.20;;;2.70;99.90;;;;;;5028007;28;20221;-61
2022/03/31 06:27:11;;;;;;;7.63;3.43;;;2.70;99.90;;;;;;5030139;28;20621;-61
2022/03/31 06:29:40;;;;;;;6.53;3.03;;;2.80;99.90;;;;;;5027946;28;20699;-64
2022/03/31 06:32:07;;;;;;;9.73;2.90;;;2.80;99.90;;;;;;5021558;28;20170;-66
2022/03/31 06:34:33;;;;;;;5.50;2.83;;;2.80;99.90;;;;;;5032011;28;20174;-62
2022/03/31 06:36:58;;;;;;;6.83;2.80;;;2.80;99.90;;;;;;5032254;28;20533;-69
2022/03/31 06:39:25;;;;;;;6.27;2.47;;;2.80;99.90;;;;;;5032485;28;20212;-68
2022/03/31 06:41:51;;;;;;;6.90;2.77;;;2.90;99.90;;;;;;5032443;28;20194;-70
2022/03/31 06:44:19;;;;;;;4.60;2.27;;;2.90;99.90;;;;;;5032108;28;20762;-68
2022/03/31 06:46:46;;;;;;;6.97;2.93;;;2.90;99.90;;;;;;5032209;28;20189;-67
2022/03/31 06:49:12;;;;;;;8.60;2.90;;;2.90;99.90;;;;;;5031244;28;20247;-67
2022/03/31 06:51:38;;;;;;;11.97;3.37;;;2.90;99.90;;;;;;5031954;28;20177;-68
2022/03/31 06:54:04;;;;;;;7.30;3.03;;;2.50;99.90;;;;;;5031509;28;20178;-63
2022/03/31 06:56:31;;;;;;;9.97;2.60;;;2.80;99.90;;;;;;5032097;28;20190;-73
2022/03/31 06:58:58;;;;;;;5.30;2.53;;;2.70;99.90;;;;;;5030315;28;20229;-72
2022/03/31 07:01:25;;;;;;;6.63;2.90;;;2.80;99.90;;;;;;5031488;28;20182;-71
2022/03/31 07:03:51;;;;;;;4.60;2.53;;;2.80;99.90;;;;;;5031998;28;20173;-71
2022/03/31 07:06:18;;;;;;;5.90;2.80;;;2.90;99.90;;;;;;5031956;28;20170;-70
2022/03/31 07:08:44;;;;;;;5.90;2.63;;;3.00;99.90;;;;;;5030992;28;20228;-70
2022/03/31 07:11:10;;;;;;;4.60;2.30;;;3.00;99.90;;;;;;5031927;28;20178;-71
2022/03/31 07:13:37;;;;;;;4.17;2.40;;;3.00;99.90;;;;;;5031372;28;20170;-69
2022/03/31 07:16:04;;;;;;;4.67;3.00;;;3.10;99.90;;;;;;5031802;28;20665;-66
2022/03/31 07:18:30;;;;;;;8.00;2.63;;;3.20;99.90;;;;;;5031209;28;20169;-72
2022/03/31 07:20:59;;;;;;;5.73;2.80;;;3.40;99.90;;;;;;5031375;28;20182;-72
2022/03/31 07:23:26;;;;;;;8.07;2.60;;;3.50;99.90;;;;;;5031626;28;20261;-72
2022/03/31 07:25:58;;;;;;;6.00;2.60;;;3.60;99.90;;;;;;5030027;28;20672;-66
2022/03/31 07:28:24;;;;;;;6.90;2.63;;;3.60;99.90;;;;;;5031045;28;20217;-61
2022/03/31 07:30:51;;;;;;;7.07;2.33;;;3.60;99.90;;;;;;5029039;28;20221;-69
2022/03/31 07:33:20;;;;;;;4.83;2.50;;;3.70;99.90;;;;;;5031019;28;20184;-60
2022/03/31 07:35:50;;;;;;;5.90;3.07;;;3.80;99.90;;;;;;5030802;28;20244;-60
2022/03/31 07:38:17;;;;;;;5.83;2.47;;;4.00;99.90;;;;;;5011594;28;20262;-60
2022/03/31 07:40:44;;;;;;;5.70;2.13;;;4.10;99.90;;;;;;5023788;28;20202;-61
2022/03/31 07:43:10;;;;;;;6.07;2.27;;;4.20;99.90;;;;;;5031098;28;20224;-61
2022/03/31 07:45:38;;;;;;;6.60;2.00;;;4.30;99.90;;;;;;5028522;28;20327;-60
2022/03/31 07:48:04;;;;;;;5.13;2.13;;;4.40;99.90;;;;;;5030426;28;20178;-61
2022/03/31 07:50:30;;;;;;;4.87;2.00;;;4.40;99.90;;;;;;5030013;28;20632;-60
2022/03/31 07:52:56;;;;;;;5.20;2.10;;;4.50;99.90;;;;;;5030881;28;20201;-60
2022/03/31 07:55:23;;;;;;;4.30;1.90;;;4.70;99.90;;;;;;5030607;28;20186;-61
2022/03/31 07:57:51;;;;;;;6.07;2.13;;;4.80;99.90;;;;;;5030596;28;20645;-60
2022/03/31 08:00:17;;;;;;;6.67;2.43;;;4.90;99.90;;;;;;5030218;28;20251;-60
2022/03/31 08:02:45;;;;;;;4.17;1.90;;;5.00;99.90;;;;;;5025316;28;20223;-60
2022/03/31 08:05:14;;;;;;;3.57;1.43;;;4.90;99.90;;;;;;5030356;28;20205;-61
2022/03/31 08:07:40;;;;;;;5.00;1.80;;;5.00;99.90;;;;;;5030231;28;20259;-61
2022/03/31 08:10:06;;;;;;;6.67;2.20;;;5.20;99.90;;;;;;5029378;28;20212;-61
2022/03/31 08:12:36;;;;;;;4.33;2.10;;;5.50;99.90;;;;;;5030142;28;20614;-61
2022/03/31 08:15:03;;;;;;;3.03;1.70;;;5.90;99.90;;;;;;5030114;28;20177;-60
2022/03/31 08:17:30;;;;;;;5.73;1.70;;;6.20;99.90;;;;;;5030164;28;20185;-61
2022/03/31 08:19:56;;;;;;;5.23;1.80;;;6.40;99.90;;;;;;5028543;28;20189;-60
2022/03/31 08:22:23;;;;;;;3.23;1.30;;;6.80;99.90;;;;;;5030070;28;20190;-61
2022/03/31 08:24:49;;;;;;;3.67;1.43;;;6.50;99.90;;;;;;5026162;28;20551;-61
2022/03/31 08:27:15;;;;;;;2.70;1.27;;;6.60;99.90;;;;;;5030061;28;20174;-61
2022/03/31 08:29:41;;;;;;;2.63;1.33;;;7.30;99.90;;;;;;5030132;28;20280;-60
2022/03/31 08:32:10;;;;;;;3.50;1.43;;;7.60;99.90;;;;;;5030302;28;20181;-61
2022/03/31 08:34:36;;;;;;;5.27;1.43;;;7.10;99.90;;;;;;5029525;28;20200;-60
2022/03/31 08:37:03;;;;;;;5.37;1.73;;;6.50;99.90;;;;;;5030121;28;20166;-60
2022/03/31 08:39:29;;;;;;;6.37;1.53;;;6.10;99.90;;;;;;5030329;28;20186;-61
2022/03/31 08:41:55;;;;;;;4.83;1.40;;;5.90;99.90;;;;;;5029663;28;20265;-61
2022/03/31 08:44:22;;;;;;;6.23;1.40;;;5.60;99.90;;;;;;5028633;28;20225;-61
2022/03/31 08:46:49;;;;;;;2.97;1.57;;;5.10;99.90;;;;;;5030413;28;20181;-61
2022/03/31 08:49:15;;;;;;;7.33;1.70;;;5.10;99.90;;;;;;5030586;28;20170;-65
2022/03/31 08:51:44;;;;;;;8.27;1.70;;;5.50;99.90;;;;;;5030429;28;20185;-62
2022/03/31 08:54:11;;;;;;;2.40;1.30;;;5.90;99.90;;;;;;5030484;28;20231;-68
2022/03/31 08:56:37;;;;;;;5.57;1.50;;;5.10;99.90;;;;;;5028778;28;20273;-68
2022/03/31 08:59:04;;;;;;;2.83;1.47;;;5.70;99.90;;;;;;5030443;28;20652;-69
2022/03/31 09:01:32;;;;;;;5.57;1.50;;;5.80;99.90;;;;;;5030374;28;20170;-68
2022/03/31 09:03:58;;;;;;;3.80;1.50;;;6.50;99.90;;;;;;5030073;28;20170;-69
2022/03/31 09:06:28;;;;;;;4.27;1.73;;;6.50;99.90;;;;;;5030256;28;20707;-68
2022/03/31 09:08:56;;;;;;;7.50;2.10;;;7.10;99.90;;;;;;5030246;28;20178;-69
2022/03/31 09:11:35;;;;;;;5.37;1.70;;;8.40;99.90;;;;;;5030044;28;20196;-69
2022/03/31 09:14:04;;;;;;;5.07;1.40;;;10.50;99.90;;;;;;5030223;28;20185;-70
2022/03/31 09:16:35;;;;;;;5.63;1.43;;;9.80;99.90;;;;;;5030315;28;20228;-69
2022/03/31 09:19:11;;;;;;;2.47;1.40;;;11.00;99.90;;;;;;5028521;28;20158;-69
2022/03/31 09:22:00;;;;;;;1.90;1.40;;;9.30;99.90;;;;;;5028237;28;20694;-69
2022/03/31 09:24:28;;;;;;;4.07;1.33;;;8.50;99.90;;;;;;5028366;28;20287;-70
2022/03/31 09:26:54;;;;;;;8.07;1.80;;;8.60;99.90;;;;;;5028110;28;20172;-70
2022/03/31 09:29:24;;;;;;;3.00;1.40;;;9.30;99.90;;;;;;5027968;28;20667;-70
2022/03/31 09:31:54;;;;;;;3.07;1.30;;;10.50;99.90;;;;;;5026684;28;20178;-70
2022/03/31 09:34:20;;;;;;;7.23;1.87;;;11.20;99.90;;;;;;5029793;28;20256;-70
2022/03/31 09:36:52;;;;;;;6.23;1.23;;;13.50;99.90;;;;;;5030105;28;20166;-71
2022/03/31 09:39:21;;;;;;;4.55;1.50;;;13.60;99.90;;;;;;5030164;28;20170;-70
2022/03/31 09:41:51;;;;;;;2.95;1.60;;;14.20;99.90;;;;;;5030052;28;20674;-71
2022/03/31 09:44:25;;;;;;;3.53;1.60;;;12.50;99.90;;;;;;5029766;28;20197;-71
2022/03/31 09:46:55;;;;;;;2.53;1.52;;;11.50;99.90;;;;;;5029942;28;20181;-70
2022/03/31 09:49:25;;;;;;;4.70;1.87;;;9.80;99.90;;;;;;5030014;28;20158;-70
2022/03/31 09:51:52;;;;;;;5.30;2.23;;;9.60;99.90;;;;;;5030046;28;20200;-70
2022/03/31 09:54:22;;;;;;;4.00;2.90;;;8.30;99.90;;;;;;5028828;28;20177;-70
2022/03/31 09:56:48;;;;;;;12.17;3.63;;;7.80;99.90;;;;;;5028606;28;20201;-70
2022/03/31 09:59:16;;;;;;;8.87;4.60;;;8.80;99.90;;;;;;5029910;28;20602;-69
2022/03/31 10:01:42;;;;;;;12.10;6.33;;;10.40;99.90;;;;;;5029872;28;20646;-69
2022/03/31 10:04:10;;;;;;;11.60;6.67;;;10.20;99.90;;;;;;5029786;28;20221;-70
2022/03/31 10:06:37;;;;;;;10.17;6.27;;;10.10;99.90;;;;;;5029783;28;20186;-69
2022/03/31 10:09:06;;;;;;;10.63;5.50;;;9.70;99.90;;;;;;5032282;28;20182;-69
2022/03/31 10:11:37;;;;;;;9.77;5.77;;;9.80;99.90;;;;;;5031951;28;20645;-69
2022/03/31 10:14:25;;;;;;;11.33;5.70;;;9.50;99.90;;;;;;5033258;28;20219;-69
2022/03/31 10:16:57;;;;;;;9.77;4.93;;;9.90;99.90;;;;;;5033185;28;20177;-69
2022/03/31 10:19:28;;;;;;;7.97;3.60;;;10.40;99.90;;;;;;5033167;28;20453;-70
2022/03/31 10:25:04;;;;;;;6.87;2.50;;;12.60;99.90;;;;;;5031591;28;20573;-70
2022/03/31 10:27:36;;;;;;;7.38;1.90;;;12.20;99.90;;;;;;5033055;28;20181;-70
2022/03/31 10:30:11;;;;;;;4.40;1.67;;;11.10;99.90;;;;;;5032843;28;20173;-71
2022/03/31 10:32:37;;;;;;;8.03;2.10;;;10.50;99.90;;;;;;5032742;28;20176;-70
2022/03/31 10:35:04;;;;;;;5.47;2.30;;;9.80;99.90;;;;;;5032796;28;20170;-70
2022/03/31 10:37:35;;;;;;;8.13;1.97;;;9.00;99.90;;;;;;5032847;28;20645;-70
2022/03/31 10:40:08;;;;;;;7.23;2.10;;;9.60;99.90;;;;;;5032573;28;20667;-71
2022/03/31 10:42:34;;;;;;;5.43;1.83;;;12.00;99.90;;;;;;5032825;28;20197;-71
2022/03/31 10:45:13;;;;;;;5.90;1.83;;;13.90;99.90;;;;;;5032441;28;20714;-71
2022/03/31 10:47:43;;;;;;;6.80;2.15;;;13.90;99.90;;;;;;5032435;28;20173;-71
2022/03/31 10:50:25;;;;;;;5.55;1.73;;;11.80;99.90;;;;;;5031155;28;20193;-70
2022/03/31 10:53:01;;;;;;;5.32;1.80;;;13.60;99.90;;;;;;5032637;28;20189;-70
2022/03/31 10:55:35;;;;;;;5.93;2.05;;;14.80;99.90;;;;;;5032333;28;20166;-70
2022/03/31 10:58:01;;;;;;;4.00;2.00;;;14.30;99.90;;;;;;5032558;28;20219;-71
2022/03/31 11:00:27;;;;;;;8.45;1.98;;;14.90;99.90;;;;;;5031231;28;20592;-71
2022/03/31 11:02:55;;;;;;;5.68;1.80;;;16.10;99.90;;;;;;5031032;28;20557;-71
2022/03/31 11:05:25;;;;;;;7.45;1.55;;;15.90;99.90;;;;;;5032342;28;20201;-71
2022/03/31 11:08:04;;;;;;;7.28;1.95;;;14.70;99.90;;;;;;5032294;28;20166;-71
2022/03/31 11:10:52;;;;;;;5.47;1.83;;;14.20;99.90;;;;;;5031762;28;20162;-71
2022/03/31 11:13:20;;;;;;;5.63;2.10;;;13.90;99.90;;;;;;5032196;28;20188;-71
2022/03/31 11:15:55;;;;;;;6.93;1.98;;;15.10;99.90;;;;;;5032070;28;20170;-72
2022/03/31 11:18:22;;;;;;;6.28;2.22;;;16.30;99.90;;;;;;5031852;28;20184;-71
2022/03/31 11:20:57;;;;;;;6.68;2.30;;;17.20;99.90;;;;;;5030852;28;20170;-72
2022/03/31 11:23:25;;;;;;;11.30;3.25;;;15.30;99.90;;;;;;5032068;28;20651;-71
2022/03/31 11:25:52;;;;;;;4.75;2.83;;;13.50;99.90;;;;;;5031272;28;20323;-72
2022/03/31 11:28:18;;;;;;;6.10;2.95;;;12.90;99.90;;;;;;5030394;28;20580;-72
2022/03/31 11:30:46;;;;;;;7.07;3.10;;;12.50;99.90;;;;;;5031626;28;20257;-72
2022/03/31 11:33:14;;;;;;;5.22;2.78;;;12.20;99.90;;;;;;5031729;28;20534;-72
2022/03/31 11:35:40;;;;;;;12.80;2.72;;;14.30;99.90;;;;;;5031611;28;20243;-72
2022/03/31 11:38:11;;;;;;;8.55;2.88;;;15.10;99.90;;;;;;5031638;28;20216;-71
2022/03/31 11:40:44;;;;;;;6.30;2.80;;;15.60;99.90;;;;;;5028935;28;20178;-70
2022/03/31 11:43:11;;;;;;;7.35;3.20;;;15.30;99.90;;;;;;5031367;28;20185;-68
2022/03/31 11:45:48;;;;;;;7.60;2.50;;;14.80;99.90;;;;;;5031200;28;20252;-68
2022/03/31 11:48:35;;;;;;;9.88;2.25;;;13.40;99.90;;;;;;5031244;28;20165;-69
2022/03/31 11:51:04;;;;;;;5.38;2.13;;;11.30;99.90;;;;;;5031066;28;20185;-69
2022/03/31 11:53:39;;;;;;;6.88;2.00;;;11.60;99.90;;;;;;5031156;28;20193;-69
2022/03/31 11:56:11;;;;;;;7.53;1.85;;;12.00;99.90;;;;;;5031220;28;20632;-69
2022/03/31 11:58:46;;;;;;;4.97;1.60;;;14.00;99.90;;;;;;5030962;28;20181;-70
2022/03/31 12:01:13;;;;;;;3.58;1.92;;;14.90;99.90;;;;;;5031024;28;20650;-70
2022/03/31 12:03:39;;;;;;;8.00;2.15;;;15.10;99.90;;;;;;5031121;28;20195;-70
2022/03/31 12:06:06;;;;;;;7.53;1.90;;;15.10;99.90;;;;;;5029047;28;20209;-71
2022/03/31 12:08:33;;;;;;;7.43;2.20;;;15.10;99.90;;;;;;5030991;28;20189;-70
2022/03/31 12:11:00;;;;;;;6.78;1.88;;;15.80;99.90;;;;;;5030886;28;20656;-70
2022/03/31 12:13:28;;;;;;;5.80;2.15;;;16.30;99.90;;;;;;5031068;28;20170;-70
2022/03/31 12:16:03;;;;;;;6.93;1.83;;;17.50;99.90;;;;;;5030844;28;20178;-69
2022/03/31 12:18:30;;;;;;;7.43;1.67;;;17.40;99.90;;;;;;5031090;28;20172;-70
2022/03/31 12:21:01;;;;;;;5.18;1.58;;;17.60;99.90;;;;;;5029831;28;20190;-70
2022/03/31 12:23:30;;;;;;;5.32;1.42;;;17.80;99.90;;;;;;5030293;28;20202;-69
2022/03/31 12:26:53;;;;;;;4.50;1.63;;;16.40;99.90;;;;;;5028665;28;20209;-69
2022/03/31 12:29:20;;;;;;;4.93;1.67;;;13.70;99.90;;;;;;5030576;28;20177;-69
2022/03/31 12:31:46;;;;;;;5.65;1.75;;;13.50;99.90;;;;;;5026504;28;20201;-69
2022/03/31 12:34:12;;;;;;;3.92;1.85;;;14.20;99.90;;;;;;5023137;28;20648;-70
2022/03/31 12:36:38;;;;;;;7.50;1.90;;;14.60;99.90;;;;;;5028958;28;20272;-70
2022/03/31 12:39:05;;;;;;;6.32;2.00;;;15.20;99.90;;;;;;5029150;28;20177;-71
2022/03/31 12:41:38;;;;;;;6.13;1.98;;;15.20;99.90;;;;;;5030536;28;20166;-69
2022/03/31 12:44:10;;;;;;;6.10;1.60;;;14.70;99.90;;;;;;5030016;28;20261;-69
2022/03/31 12:46:42;;;;;;;4.93;1.63;;;13.10;99.90;;;;;;5029177;28;20177;-69
2022/03/31 12:49:16;;;;;;;4.43;1.50;;;11.60;99.90;;;;;;5030299;28;20261;-69
2022/03/31 12:51:43;;;;;;;8.13;1.83;;;11.00;99.90;;;;;;5029293;28;20290;-69
2022/03/31 12:54:47;;;;;;;3.28;1.48;;;10.60;99.90;;;;;;5028999;28;20182;-66
2022/03/31 12:57:22;;;;;;;3.65;1.52;;;10.90;99.90;;;;;;5007965;28;20200;-65
2022/03/31 13:00:09;;;;;;;6.18;2.08;;;12.90;99.90;;;;;;5010047;28;20170;-65
2022/03/31 13:02:36;;;;;;;4.55;1.77;;;12.90;99.90;;;;;;5010587;28;20171;-66
2022/03/31 13:05:03;;;;;;;2.13;1.00;;;14.60;99.90;;;;;;5010391;28;20212;-66